Monday, December 18, 2017, 11:35 AM EST
Back to Local

KCKB, Harrison/marion Regional

Location: Bridgeport, WV, United States Lat: 39.3
Local Time: 11:35 AM EST (16:35 GMT) Lon: -80.217
Time Zone: US/Eastern Elev: 1204 ft

Show me the last for .
Show Coded

Time T Td Feel RH Dir Speed Gust Alt SLP Vis Weather Sky Remarks
2017-12-18 10:53 44 40 39 85 230° 10 - 30.09 30.09 10 OVC008 None
2017-12-18 09:53 43 39 39 85 200° 7 - 30.09 30.10 8 OVC006 None
2017-12-18 08:53 41 38 36 88 190° 7 - 30.10 30.10 6 BR OVC006 None
2017-12-18 07:53 41 38 37 88 220° 6 - 30.11 30.11 9 OVC006 None
2017-12-18 06:53 40 38 36 92 200° 6 - 30.11 30.11 5 BR OVC005 6-hr Min Temp (7am): 39.9°F
6-hr Max Temp (7am): 41.0°F
2017-12-18 05:53 40 38 38 92 210° 3 - 30.11 30.11 3 BR OVC007 None
2017-12-18 04:53 41 37 36 85 230° 8 - 30.10 30.11 10 OVC008 None
2017-12-18 03:53 41 37 36 85 230° 7 - 30.10 30.11 10 OVC008 None
2017-12-18 02:53 41 37 36 85 230° 7 - 30.11 30.11 9 OVC006 None
2017-12-18 01:53 40 36 34 85 210° 8 - 30.11 30.11 10 OVC008 None
2017-12-18 01:22 40 36 34 85 210° 8 - 30.10 - 10 OVC009 None
2017-12-18 00:53 41 34 36 75 230° 7 - 30.11 30.11 10 OVC012 6-hr Min Temp (1am): 41.0°F
6-hr Max Temp (1am): 43.0°F
2017-12-18 00:50 41 34 36 75 220° 8 - 30.11 - 10 OVC014 None
2017-12-17 23:53 42 32 38 67 210° 7 - 30.12 30.13 10 OVC019 24-hr Min Temp (12am): 33.1°F
24-hr Max Temp (12am): 46.0°F
2017-12-17 23:01 42 30 38 62 210° 7 - 30.14 - 10 BKN023 BKN031 OVC038 None
2017-12-17 22:53 42 30 37 62 210° 8 - 30.13 30.14 10 SCT025 BKN031 OVC038 None
2017-12-17 21:53 42 29 40 59 190° 3 - 30.12 30.13 10 OVC042 None
2017-12-17 20:53 43 29 40 57 180° 5 - 30.13 30.14 10 OVC055 None
2017-12-17 19:53 43 29 41 57 240° 3 - 30.14 30.14 10 OVC037 None
2017-12-17 18:53 43 28 - 55 - Calm - 30.13 30.14 10 BKN070 OVC095 6-hr Min Temp (7pm): 41.0°F
6-hr Max Temp (7pm): 46.0°F
2017-12-17 17:53 43 29 - 57 - Calm - 30.14 30.14 10 OVC075 None
2017-12-17 16:53 43 29 - 57 - Calm - 30.14 30.15 10 OVC080 None
2017-12-17 15:53 45 29 44 53 270° 3 - 30.15 30.15 10 OVC090 Pressure rising rapidly
2017-12-17 14:53 45 29 - 53 - Calm - 30.11 30.11 10 OVC100 None
2017-12-17 13:53 45 28 - 51 - Calm - 30.12 30.12 10 OVC110 None
2017-12-17 12:53 44 29 41 55 200° 6 - 30.16 30.16 10 FEW075 OVC110 1-hr Precip Total: Trace
6-hr Precip Total (1pm): 0.00"
6-hr Min Temp (1pm): 35.1°F
6-hr Max Temp (1pm): 44.1°F
2017-12-17 11:53 43 28 38 55 190° 8 - 30.19 30.20 10 OVC110 None

Support USWX by starting your Amazon purchase here.